Main page
METAR-TAF:

METAR-TAF

Airports :

Philip Billard Municipal Airport

Topeka, Kansas, United States

latitude: 39-04-21N, longitude: 095-37-33W, elevation: 879 ft

Current weather observation

The report was made 57 minutes ago, at 15:53 UTC
Wind 6 mph from the East
Temperature 84°F
Humidity 62%
Pressure 30.05 in. Hg
Visibility: 10 miles
Clear sky

METAR: KTOP 141553Z 08005KT 10SM CLR 29/21 A3005 RMK AO2 SLP165 T02890206

Time: 11:50 (16:50 UTC)

Forecast

The report was made 5 hours and 30 minutes ago, at 11:20 UTC
Forecast valid from 14 at 12 UTC to 15 at 12 UTC
Wind 9 mph from the East
Visibility: 6 miles
Few clouds at a height of 5000 ft
Scattered clouds at a height of 15000 ft

TAF: KTOP 141120Z 1412/1512 08008KT P6SM FEW050 SCT150

Weather observations and forecasts of more than 4000 airports (METAR and TAF reports).

The available stations are represented by yellow and red dots on the map.

Hover mouse over dot to see the name of the station.

Then click to see weather observations and forecasts.

To change the map : click on the green buttons with a black cross to zoom in, on the green button with a dash to zoom out, or on the green arrows for adjacent maps.


METAR-TAF: